sensor_id;sensor_type;location;lat;lon;timestamp;P1;durP1;ratioP1;P2;durP2;ratioP2
10045;SDS011;5063;50.878;4.742;2023-05-29T00:00:20;6.37;;;4.07;;
10045;SDS011;5063;50.878;4.742;2023-05-29T00:02:48;9.43;;;4.27;;
10045;SDS011;5063;50.878;4.742;2023-05-29T00:05:16;7.77;;;4.03;;
10045;SDS011;5063;50.878;4.742;2023-05-29T00:07:42;9.77;;;4.80;;
10045;SDS011;5063;50.878;4.742;2023-05-29T00:10:09;7.60;;;4.83;;
10045;SDS011;5063;50.878;4.742;2023-05-29T00:12:35;7.27;;;5.20;;
10045;SDS011;5063;50.878;4.742;2023-05-29T00:15:02;8.33;;;4.70;;
10045;SDS011;5063;50.878;4.742;2023-05-29T00:17:31;10.30;;;4.87;;
10045;SDS011;5063;50.878;4.742;2023-05-29T00:20:00;9.90;;;4.83;;
10045;SDS011;5063;50.878;4.742;2023-05-29T00:22:30;6.97;;;5.13;;
10045;SDS011;5063;50.878;4.742;2023-05-29T00:24:56;10.47;;;5.50;;
10045;SDS011;5063;50.878;4.742;2023-05-29T00:27:22;9.47;;;5.03;;
10045;SDS011;5063;50.878;4.742;2023-05-29T00:29:47;8.80;;;4.73;;
10045;SDS011;5063;50.878;4.742;2023-05-29T00:32:13;6.13;;;4.90;;
10045;SDS011;5063;50.878;4.742;2023-05-29T00:34:39;11.50;;;5.17;;
10045;SDS011;5063;50.878;4.742;2023-05-29T00:37:05;8.83;;;5.30;;
10045;SDS011;5063;50.878;4.742;2023-05-29T00:39:31;7.47;;;4.80;;
10045;SDS011;5063;50.878;4.742;2023-05-29T00:41:57;6.77;;;4.83;;
10045;SDS011;5063;50.878;4.742;2023-05-29T00:44:23;10.10;;;4.90;;
10045;SDS011;5063;50.878;4.742;2023-05-29T00:46:49;10.63;;;5.90;;
10045;SDS011;5063;50.878;4.742;2023-05-29T00:49:17;13.53;;;5.57;;
10045;SDS011;5063;50.878;4.742;2023-05-29T00:51:45;8.83;;;5.50;;
10045;SDS011;5063;50.878;4.742;2023-05-29T00:54:12;12.63;;;5.90;;
10045;SDS011;5063;50.878;4.742;2023-05-29T00:56:39;7.00;;;5.80;;
10045;SDS011;5063;50.878;4.742;2023-05-29T00:59:09;7.20;;;5.37;;
10045;SDS011;5063;50.878;4.742;2023-05-29T01:01:35;11.00;;;5.80;;
10045;SDS011;5063;50.878;4.742;2023-05-29T01:04:03;10.73;;;6.17;;
10045;SDS011;5063;50.878;4.742;2023-05-29T01:06:34;11.80;;;6.87;;
10045;SDS011;5063;50.878;4.742;2023-05-29T01:09:01;10.73;;;6.67;;
10045;SDS011;5063;50.878;4.742;2023-05-29T01:11:45;9.37;;;6.60;;
10045;SDS011;5063;50.878;4.742;2023-05-29T01:22:41;13.03;;;6.30;;
10045;SDS011;5063;50.878;4.742;2023-05-29T01:25:19;11.90;;;7.03;;
10045;SDS011;5063;50.878;4.742;2023-05-29T01:27:53;12.57;;;7.77;;
10045;SDS011;5063;50.878;4.742;2023-05-29T01:30:20;10.10;;;6.77;;
10045;SDS011;5063;50.878;4.742;2023-05-29T01:32:49;9.90;;;6.20;;
10045;SDS011;5063;50.878;4.742;2023-05-29T01:35:15;11.20;;;6.97;;
10045;SDS011;5063;50.878;4.742;2023-05-29T01:37:41;12.60;;;7.67;;
10045;SDS011;5063;50.878;4.742;2023-05-29T01:40:07;13.47;;;7.73;;
10045;SDS011;5063;50.878;4.742;2023-05-29T01:42:33;11.77;;;6.83;;
10045;SDS011;5063;50.878;4.742;2023-05-29T01:44:59;15.07;;;6.93;;
10045;SDS011;5063;50.878;4.742;2023-05-29T01:47:26;13.70;;;7.53;;
10045;SDS011;5063;50.878;4.742;2023-05-29T01:49:52;10.33;;;6.57;;
10045;SDS011;5063;50.878;4.742;2023-05-29T01:52:19;12.03;;;7.03;;
10045;SDS011;5063;50.878;4.742;2023-05-29T01:54:48;11.43;;;7.40;;
10045;SDS011;5063;50.878;4.742;2023-05-29T01:57:14;10.07;;;7.40;;
10045;SDS011;5063;50.878;4.742;2023-05-29T01:59:41;9.70;;;6.70;;
10045;SDS011;5063;50.878;4.742;2023-05-29T02:02:07;13.47;;;6.27;;
10045;SDS011;5063;50.878;4.742;2023-05-29T02:04:33;10.50;;;6.43;;
10045;SDS011;5063;50.878;4.742;2023-05-29T02:06:59;10.97;;;6.83;;
10045;SDS011;5063;50.878;4.742;2023-05-29T02:09:25;14.03;;;7.17;;
10045;SDS011;5063;50.878;4.742;2023-05-29T02:11:51;13.00;;;7.10;;
10045;SDS011;5063;50.878;4.742;2023-05-29T02:14:17;15.83;;;7.03;;
10045;SDS011;5063;50.878;4.742;2023-05-29T02:16:43;12.60;;;6.53;;
10045;SDS011;5063;50.878;4.742;2023-05-29T02:19:10;13.27;;;7.07;;
10045;SDS011;5063;50.878;4.742;2023-05-29T02:21:39;14.23;;;6.33;;
10045;SDS011;5063;50.878;4.742;2023-05-29T02:24:08;12.13;;;6.77;;
10045;SDS011;5063;50.878;4.742;2023-05-29T02:26:33;17.17;;;7.33;;
10045;SDS011;5063;50.878;4.742;2023-05-29T02:29:02;11.40;;;7.13;;
10045;SDS011;5063;50.878;4.742;2023-05-29T02:31:30;18.40;;;7.17;;
10045;SDS011;5063;50.878;4.742;2023-05-29T02:33:56;10.87;;;6.83;;
10045;SDS011;5063;50.878;4.742;2023-05-29T02:36:22;13.43;;;6.67;;
10045;SDS011;5063;50.878;4.742;2023-05-29T02:38:48;9.53;;;6.27;;
10045;SDS011;5063;50.878;4.742;2023-05-29T02:41:14;14.30;;;6.63;;
10045;SDS011;5063;50.878;4.742;2023-05-29T02:43:40;13.47;;;6.90;;
10045;SDS011;5063;50.878;4.742;2023-05-29T02:46:05;9.03;;;6.17;;
10045;SDS011;5063;50.878;4.742;2023-05-29T02:48:31;13.97;;;6.60;;
10045;SDS011;5063;50.878;4.742;2023-05-29T02:50:57;10.17;;;5.97;;
10045;SDS011;5063;50.878;4.742;2023-05-29T02:53:22;14.77;;;6.03;;
10045;SDS011;5063;50.878;4.742;2023-05-29T02:55:49;12.93;;;6.83;;
10045;SDS011;5063;50.878;4.742;2023-05-29T02:58:16;13.30;;;6.23;;
10045;SDS011;5063;50.878;4.742;2023-05-29T03:00:42;12.67;;;6.33;;
10045;SDS011;5063;50.878;4.742;2023-05-29T03:03:08;13.47;;;5.50;;
10045;SDS011;5063;50.878;4.742;2023-05-29T03:05:34;11.43;;;5.50;;
10045;SDS011;5063;50.878;4.742;2023-05-29T03:08:00;11.63;;;5.60;;
10045;SDS011;5063;50.878;4.742;2023-05-29T03:10:25;16.23;;;5.50;;
10045;SDS011;5063;50.878;4.742;2023-05-29T03:12:51;14.83;;;5.83;;
10045;SDS011;5063;50.878;4.742;2023-05-29T03:15:17;13.17;;;6.30;;
10045;SDS011;5063;50.878;4.742;2023-05-29T03:17:45;13.37;;;5.33;;
10045;SDS011;5063;50.878;4.742;2023-05-29T03:20:11;10.90;;;5.57;;
10045;SDS011;5063;50.878;4.742;2023-05-29T03:22:38;11.53;;;5.80;;
10045;SDS011;5063;50.878;4.742;2023-05-29T03:25:04;12.10;;;4.50;;
10045;SDS011;5063;50.878;4.742;2023-05-29T03:27:31;13.50;;;4.60;;
10045;SDS011;5063;50.878;4.742;2023-05-29T03:29:58;15.00;;;5.40;;
10045;SDS011;5063;50.878;4.742;2023-05-29T03:32:24;9.37;;;4.60;;
10045;SDS011;5063;50.878;4.742;2023-05-29T03:34:50;10.40;;;4.30;;
10045;SDS011;5063;50.878;4.742;2023-05-29T03:37:16;13.27;;;4.37;;
10045;SDS011;5063;50.878;4.742;2023-05-29T03:39:42;11.83;;;4.87;;
10045;SDS011;5063;50.878;4.742;2023-05-29T03:42:07;9.53;;;4.60;;
10045;SDS011;5063;50.878;4.742;2023-05-29T03:44:33;11.40;;;5.13;;
10045;SDS011;5063;50.878;4.742;2023-05-29T03:46:59;11.03;;;4.33;;
10045;SDS011;5063;50.878;4.742;2023-05-29T03:49:25;8.27;;;3.80;;
10045;SDS011;5063;50.878;4.742;2023-05-29T03:51:50;14.60;;;4.43;;
10045;SDS011;5063;50.878;4.742;2023-05-29T03:54:16;9.97;;;4.00;;
10045;SDS011;5063;50.878;4.742;2023-05-29T03:56:42;10.30;;;4.53;;
10045;SDS011;5063;50.878;4.742;2023-05-29T03:59:08;13.10;;;4.77;;
10045;SDS011;5063;50.878;4.742;2023-05-29T04:01:34;6.77;;;3.77;;
10045;SDS011;5063;50.878;4.742;2023-05-29T04:04:00;10.30;;;4.10;;
10045;SDS011;5063;50.878;4.742;2023-05-29T04:06:26;10.70;;;3.70;;
10045;SDS011;5063;50.878;4.742;2023-05-29T04:08:52;14.03;;;3.80;;
10045;SDS011;5063;50.878;4.742;2023-05-29T04:11:18;10.57;;;4.00;;
10045;SDS011;5063;50.878;4.742;2023-05-29T04:13:46;8.13;;;3.70;;
10045;SDS011;5063;50.878;4.742;2023-05-29T04:16:13;10.10;;;3.83;;
10045;SDS011;5063;50.878;4.742;2023-05-29T04:18:38;14.00;;;3.53;;
10045;SDS011;5063;50.878;4.742;2023-05-29T04:21:04;8.00;;;3.43;;
10045;SDS011;5063;50.878;4.742;2023-05-29T04:23:30;12.67;;;3.77;;
10045;SDS011;5063;50.878;4.742;2023-05-29T04:25:56;7.47;;;2.70;;
10045;SDS011;5063;50.878;4.742;2023-05-29T04:28:22;12.73;;;3.80;;
10045;SDS011;5063;50.878;4.742;2023-05-29T04:30:48;9.47;;;3.40;;
10045;SDS011;5063;50.878;4.742;2023-05-29T04:33:14;15.23;;;3.30;;
10045;SDS011;5063;50.878;4.742;2023-05-29T04:35:40;11.07;;;2.67;;
10045;SDS011;5063;50.878;4.742;2023-05-29T04:38:09;9.53;;;3.00;;
10045;SDS011;5063;50.878;4.742;2023-05-29T04:40:35;7.73;;;3.30;;
10045;SDS011;5063;50.878;4.742;2023-05-29T04:43:05;8.60;;;3.57;;
10045;SDS011;5063;50.878;4.742;2023-05-29T04:45:31;10.27;;;3.13;;
10045;SDS011;5063;50.878;4.742;2023-05-29T04:47:57;11.20;;;3.73;;
10045;SDS011;5063;50.878;4.742;2023-05-29T04:50:22;5.93;;;3.13;;
10045;SDS011;5063;50.878;4.742;2023-05-29T04:52:49;12.40;;;2.77;;
10045;SDS011;5063;50.878;4.742;2023-05-29T04:55:15;8.43;;;3.00;;
10045;SDS011;5063;50.878;4.742;2023-05-29T04:57:41;9.73;;;3.70;;
10045;SDS011;5063;50.878;4.742;2023-05-29T05:00:07;11.37;;;3.30;;
10045;SDS011;5063;50.878;4.742;2023-05-29T05:02:40;10.20;;;3.23;;
10045;SDS011;5063;50.878;4.742;2023-05-29T05:05:08;10.17;;;3.03;;
10045;SDS011;5063;50.878;4.742;2023-05-29T05:07:34;7.87;;;2.90;;
10045;SDS011;5063;50.878;4.742;2023-05-29T05:10:00;9.20;;;3.20;;
10045;SDS011;5063;50.878;4.742;2023-05-29T05:12:26;8.63;;;3.47;;
10045;SDS011;5063;50.878;4.742;2023-05-29T05:14:52;10.20;;;3.43;;
10045;SDS011;5063;50.878;4.742;2023-05-29T05:17:18;8.37;;;3.10;;
10045;SDS011;5063;50.878;4.742;2023-05-29T05:19:43;5.67;;;2.70;;
10045;SDS011;5063;50.878;4.742;2023-05-29T05:22:09;8.40;;;3.07;;
10045;SDS011;5063;50.878;4.742;2023-05-29T05:24:35;8.20;;;2.47;;
10045;SDS011;5063;50.878;4.742;2023-05-29T05:27:01;10.70;;;3.50;;
10045;SDS011;5063;50.878;4.742;2023-05-29T05:29:26;7.23;;;2.83;;
10045;SDS011;5063;50.878;4.742;2023-05-29T05:31:52;9.13;;;3.33;;
10045;SDS011;5063;50.878;4.742;2023-05-29T05:34:18;8.00;;;3.10;;
10045;SDS011;5063;50.878;4.742;2023-05-29T05:36:44;9.77;;;2.97;;
10045;SDS011;5063;50.878;4.742;2023-05-29T05:39:09;10.87;;;2.83;;
10045;SDS011;5063;50.878;4.742;2023-05-29T05:41:35;8.03;;;3.03;;
10045;SDS011;5063;50.878;4.742;2023-05-29T05:44:01;10.87;;;3.40;;
10045;SDS011;5063;50.878;4.742;2023-05-29T05:46:27;6.93;;;2.93;;
10045;SDS011;5063;50.878;4.742;2023-05-29T05:48:53;9.13;;;2.80;;
10045;SDS011;5063;50.878;4.742;2023-05-29T05:51:22;8.60;;;2.87;;
10045;SDS011;5063;50.878;4.742;2023-05-29T05:53:48;12.60;;;3.07;;
10045;SDS011;5063;50.878;4.742;2023-05-29T05:56:14;11.20;;;2.90;;
10045;SDS011;5063;50.878;4.742;2023-05-29T05:58:40;6.67;;;2.97;;
10045;SDS011;5063;50.878;4.742;2023-05-29T06:01:07;12.30;;;3.23;;
10045;SDS011;5063;50.878;4.742;2023-05-29T06:03:33;12.70;;;3.43;;
10045;SDS011;5063;50.878;4.742;2023-05-29T06:06:06;11.23;;;3.17;;
10045;SDS011;5063;50.878;4.742;2023-05-29T06:08:33;8.90;;;3.50;;
10045;SDS011;5063;50.878;4.742;2023-05-29T06:10:59;7.37;;;2.90;;
10045;SDS011;5063;50.878;4.742;2023-05-29T06:13:25;4.53;;;2.60;;
10045;SDS011;5063;50.878;4.742;2023-05-29T06:15:51;8.13;;;2.40;;
10045;SDS011;5063;50.878;4.742;2023-05-29T06:18:17;9.83;;;3.63;;
10045;SDS011;5063;50.878;4.742;2023-05-29T06:20:42;7.83;;;2.57;;
10045;SDS011;5063;50.878;4.742;2023-05-29T06:23:08;8.47;;;2.77;;
10045;SDS011;5063;50.878;4.742;2023-05-29T06:25:34;12.70;;;3.43;;
10045;SDS011;5063;50.878;4.742;2023-05-29T06:28:00;3.20;;;2.30;;
10045;SDS011;5063;50.878;4.742;2023-05-29T06:30:27;11.33;;;3.53;;
10045;SDS011;5063;50.878;4.742;2023-05-29T06:32:53;8.23;;;3.13;;
10045;SDS011;5063;50.878;4.742;2023-05-29T06:35:19;7.07;;;2.73;;
10045;SDS011;5063;50.878;4.742;2023-05-29T06:37:45;9.93;;;2.80;;
10045;SDS011;5063;50.878;4.742;2023-05-29T06:40:14;9.03;;;3.03;;
10045;SDS011;5063;50.878;4.742;2023-05-29T06:42:43;10.03;;;3.70;;
10045;SDS011;5063;50.878;4.742;2023-05-29T06:45:11;12.27;;;3.60;;
10045;SDS011;5063;50.878;4.742;2023-05-29T06:47:43;8.23;;;2.97;;
10045;SDS011;5063;50.878;4.742;2023-05-29T06:50:09;8.27;;;3.03;;
10045;SDS011;5063;50.878;4.742;2023-05-29T06:52:35;10.47;;;2.60;;
10045;SDS011;5063;50.878;4.742;2023-05-29T06:55:01;6.93;;;2.67;;
10045;SDS011;5063;50.878;4.742;2023-05-29T06:57:27;10.93;;;3.33;;
10045;SDS011;5063;50.878;4.742;2023-05-29T06:59:53;8.10;;;3.50;;
10045;SDS011;5063;50.878;4.742;2023-05-29T07:02:19;10.43;;;3.17;;
10045;SDS011;5063;50.878;4.742;2023-05-29T07:04:45;7.70;;;2.80;;
10045;SDS011;5063;50.878;4.742;2023-05-29T07:07:11;7.80;;;3.10;;
10045;SDS011;5063;50.878;4.742;2023-05-29T07:09:36;10.30;;;2.70;;
10045;SDS011;5063;50.878;4.742;2023-05-29T07:12:04;7.07;;;2.77;;
10045;SDS011;5063;50.878;4.742;2023-05-29T07:14:31;7.87;;;2.90;;
10045;SDS011;5063;50.878;4.742;2023-05-29T07:16:56;4.57;;;2.30;;
10045;SDS011;5063;50.878;4.742;2023-05-29T07:19:22;10.10;;;3.30;;
10045;SDS011;5063;50.878;4.742;2023-05-29T07:21:48;7.67;;;3.10;;
10045;SDS011;5063;50.878;4.742;2023-05-29T07:24:14;7.27;;;2.47;;
10045;SDS011;5063;50.878;4.742;2023-05-29T07:26:40;11.93;;;3.00;;
10045;SDS011;5063;50.878;4.742;2023-05-29T07:29:05;8.47;;;3.43;;
10045;SDS011;5063;50.878;4.742;2023-05-29T07:31:31;6.40;;;2.40;;
10045;SDS011;5063;50.878;4.742;2023-05-29T07:33:57;7.87;;;3.10;;
10045;SDS011;5063;50.878;4.742;2023-05-29T07:36:23;10.80;;;2.90;;
10045;SDS011;5063;50.878;4.742;2023-05-29T07:38:48;8.90;;;3.13;;
10045;SDS011;5063;50.878;4.742;2023-05-29T07:41:17;10.07;;;3.23;;
10045;SDS011;5063;50.878;4.742;2023-05-29T07:43:43;7.37;;;3.10;;
10045;SDS011;5063;50.878;4.742;2023-05-29T07:46:11;8.77;;;2.80;;
10045;SDS011;5063;50.878;4.742;2023-05-29T07:48:37;7.90;;;2.70;;
10045;SDS011;5063;50.878;4.742;2023-05-29T07:51:02;6.57;;;3.13;;
10045;SDS011;5063;50.878;4.742;2023-05-29T07:53:28;7.43;;;3.00;;
10045;SDS011;5063;50.878;4.742;2023-05-29T07:55:54;5.67;;;3.30;;
10045;SDS011;5063;50.878;4.742;2023-05-29T07:58:19;7.43;;;2.90;;
10045;SDS011;5063;50.878;4.742;2023-05-29T08:00:45;6.37;;;2.60;;
10045;SDS011;5063;50.878;4.742;2023-05-29T08:03:11;6.23;;;2.80;;
10045;SDS011;5063;50.878;4.742;2023-05-29T08:05:37;7.00;;;2.97;;
10045;SDS011;5063;50.878;4.742;2023-05-29T08:08:03;10.03;;;2.87;;
10045;SDS011;5063;50.878;4.742;2023-05-29T08:10:29;8.53;;;3.27;;
10045;SDS011;5063;50.878;4.742;2023-05-29T08:12:55;6.80;;;2.67;;
10045;SDS011;5063;50.878;4.742;2023-05-29T08:15:21;8.50;;;2.87;;
10045;SDS011;5063;50.878;4.742;2023-05-29T08:17:49;6.73;;;2.90;;
10045;SDS011;5063;50.878;4.742;2023-05-29T08:20:15;9.63;;;3.13;;
10045;SDS011;5063;50.878;4.742;2023-05-29T08:22:41;7.20;;;3.43;;
10045;SDS011;5063;50.878;4.742;2023-05-29T08:25:07;8.57;;;3.13;;
10045;SDS011;5063;50.878;4.742;2023-05-29T08:27:33;8.73;;;2.93;;
10045;SDS011;5063;50.878;4.742;2023-05-29T08:29:59;8.43;;;3.50;;
10045;SDS011;5063;50.878;4.742;2023-05-29T08:32:25;8.50;;;3.23;;
10045;SDS011;5063;50.878;4.742;2023-05-29T08:34:51;9.07;;;2.87;;
10045;SDS011;5063;50.878;4.742;2023-05-29T08:37:16;7.83;;;2.60;;
10045;SDS011;5063;50.878;4.742;2023-05-29T08:39:42;8.13;;;3.23;;
10045;SDS011;5063;50.878;4.742;2023-05-29T08:42:10;7.63;;;3.20;;
10045;SDS011;5063;50.878;4.742;2023-05-29T08:44:40;9.20;;;3.17;;
10045;SDS011;5063;50.878;4.742;2023-05-29T08:47:06;8.67;;;3.27;;
10045;SDS011;5063;50.878;4.742;2023-05-29T08:49:42;6.00;;;3.23;;
10045;SDS011;5063;50.878;4.742;2023-05-29T08:52:09;8.60;;;2.97;;
10045;SDS011;5063;50.878;4.742;2023-05-29T08:54:40;8.50;;;3.13;;
10045;SDS011;5063;50.878;4.742;2023-05-29T08:57:06;6.20;;;3.00;;
10045;SDS011;5063;50.878;4.742;2023-05-29T08:59:33;10.13;;;3.63;;
10045;SDS011;5063;50.878;4.742;2023-05-29T09:01:59;6.50;;;2.90;;
10045;SDS011;5063;50.878;4.742;2023-05-29T09:04:27;7.87;;;3.70;;
10045;SDS011;5063;50.878;4.742;2023-05-29T09:06:55;12.60;;;3.17;;
10045;SDS011;5063;50.878;4.742;2023-05-29T09:09:24;11.27;;;2.77;;
10045;SDS011;5063;50.878;4.742;2023-05-29T09:11:52;9.67;;;3.17;;
10045;SDS011;5063;50.878;4.742;2023-05-29T09:14:37;8.33;;;2.87;;
10045;SDS011;5063;50.878;4.742;2023-05-29T09:17:06;9.48;;;3.45;;
10045;SDS011;5063;50.878;4.742;2023-05-29T09:19:33;9.15;;;2.88;;
10045;SDS011;5063;50.878;4.742;2023-05-29T09:22:01;7.82;;;3.15;;
10045;SDS011;5063;50.878;4.742;2023-05-29T09:24:29;8.13;;;3.22;;
10045;SDS011;5063;50.878;4.742;2023-05-29T09:26:58;12.73;;;2.97;;
10045;SDS011;5063;50.878;4.742;2023-05-29T09:29:25;5.67;;;2.83;;
10045;SDS011;5063;50.878;4.742;2023-05-29T09:31:51;8.35;;;2.90;;
10045;SDS011;5063;50.878;4.742;2023-05-29T09:34:17;10.18;;;3.10;;
10045;SDS011;5063;50.878;4.742;2023-05-29T09:36:43;9.73;;;3.08;;
10045;SDS011;5063;50.878;4.742;2023-05-29T09:39:08;6.47;;;3.13;;
10045;SDS011;5063;50.878;4.742;2023-05-29T09:41:41;11.33;;;3.50;;
10045;SDS011;5063;50.878;4.742;2023-05-29T09:44:10;10.00;;;3.03;;
10045;SDS011;5063;50.878;4.742;2023-05-29T09:46:38;12.93;;;3.33;;
10045;SDS011;5063;50.878;4.742;2023-05-29T09:49:08;7.93;;;3.20;;
10045;SDS011;5063;50.878;4.742;2023-05-29T09:51:36;9.50;;;3.00;;
10045;SDS011;5063;50.878;4.742;2023-05-29T09:54:15;11.53;;;3.27;;
10045;SDS011;5063;50.878;4.742;2023-05-29T09:56:44;8.20;;;3.53;;
10045;SDS011;5063;50.878;4.742;2023-05-29T09:59:14;4.93;;;2.60;;
10045;SDS011;5063;50.878;4.742;2023-05-29T10:01:41;9.20;;;2.87;;
10045;SDS011;5063;50.878;4.742;2023-05-29T10:04:09;9.43;;;3.07;;
10045;SDS011;5063;50.878;4.742;2023-05-29T10:06:41;9.20;;;3.10;;
10045;SDS011;5063;50.878;4.742;2023-05-29T10:09:14;7.83;;;3.03;;
10045;SDS011;5063;50.878;4.742;2023-05-29T10:11:43;9.77;;;2.70;;
10045;SDS011;5063;50.878;4.742;2023-05-29T10:14:14;12.40;;;3.80;;
10045;SDS011;5063;50.878;4.742;2023-05-29T10:16:44;8.13;;;2.70;;
10045;SDS011;5063;50.878;4.742;2023-05-29T10:19:12;7.33;;;3.10;;
10045;SDS011;5063;50.878;4.742;2023-05-29T10:21:49;8.60;;;3.30;;
10045;SDS011;5063;50.878;4.742;2023-05-29T10:24:18;8.27;;;3.13;;
10045;SDS011;5063;50.878;4.742;2023-05-29T10:26:45;8.23;;;2.90;;
10045;SDS011;5063;50.878;4.742;2023-05-29T10:37:33;8.47;;;3.10;;
10045;SDS011;5063;50.878;4.742;2023-05-29T10:40:05;10.33;;;3.33;;
10045;SDS011;5063;50.878;4.742;2023-05-29T10:42:45;10.80;;;3.30;;
10045;SDS011;5063;50.878;4.742;2023-05-29T10:48:35;8.50;;;2.80;;
10045;SDS011;5063;50.878;4.742;2023-05-29T10:50:43;8.80;;;3.50;;
10045;SDS011;5063;50.878;4.742;2023-05-29T10:53:10;8.43;;;2.90;;
10045;SDS011;5063;50.878;4.742;2023-05-29T10:55:42;10.43;;;3.27;;
10045;SDS011;5063;50.878;4.742;2023-05-29T10:58:18;9.53;;;2.90;;
10045;SDS011;5063;50.878;4.742;2023-05-29T11:00:45;10.30;;;2.40;;
10045;SDS011;5063;50.878;4.742;2023-05-29T11:03:25;9.37;;;3.43;;
10045;SDS011;5063;50.878;4.742;2023-05-29T11:06:02;7.40;;;2.83;;
10045;SDS011;5063;50.878;4.742;2023-05-29T11:11:13;10.07;;;3.20;;
10045;SDS011;5063;50.878;4.742;2023-05-29T11:14:01;8.40;;;2.93;;
10045;SDS011;5063;50.878;4.742;2023-05-29T11:18:55;7.23;;;2.43;;
10045;SDS011;5063;50.878;4.742;2023-05-29T11:24:12;7.40;;;3.00;;
10045;SDS011;5063;50.878;4.742;2023-05-29T11:26:53;8.63;;;2.60;;
10045;SDS011;5063;50.878;4.742;2023-05-29T11:29:24;10.13;;;3.47;;
10045;SDS011;5063;50.878;4.742;2023-05-29T11:31:57;4.78;;;2.58;;
10045;SDS011;5063;50.878;4.742;2023-05-29T11:34:27;9.38;;;3.03;;
10045;SDS011;5063;50.878;4.742;2023-05-29T11:36:56;6.85;;;2.45;;
10045;SDS011;5063;50.878;4.742;2023-05-29T11:39:22;6.85;;;3.47;;
10045;SDS011;5063;50.878;4.742;2023-05-29T11:41:51;7.35;;;2.58;;
10045;SDS011;5063;50.878;4.742;2023-05-29T11:44:23;10.32;;;2.90;;
10045;SDS011;5063;50.878;4.742;2023-05-29T11:49:47;9.60;;;3.15;;
10045;SDS011;5063;50.878;4.742;2023-05-29T11:52:14;5.53;;;3.13;;
10045;SDS011;5063;50.878;4.742;2023-05-29T11:54:41;8.07;;;2.78;;
10045;SDS011;5063;50.878;4.742;2023-05-29T11:57:17;4.22;;;2.17;;
10045;SDS011;5063;50.878;4.742;2023-05-29T11:59:46;9.70;;;2.72;;
10045;SDS011;5063;50.878;4.742;2023-05-29T12:02:12;7.38;;;2.75;;
10045;SDS011;5063;50.878;4.742;2023-05-29T12:04:39;6.45;;;2.80;;
10045;SDS011;5063;50.878;4.742;2023-05-29T12:07:20;10.73;;;2.92;;
10045;SDS011;5063;50.878;4.742;2023-05-29T12:09:45;5.68;;;2.10;;
10045;SDS011;5063;50.878;4.742;2023-05-29T12:12:13;7.47;;;2.78;;
10045;SDS011;5063;50.878;4.742;2023-05-29T12:14:39;9.35;;;3.47;;
10045;SDS011;5063;50.878;4.742;2023-05-29T12:17:05;10.10;;;2.85;;
10045;SDS011;5063;50.878;4.742;2023-05-29T12:19:31;6.95;;;2.58;;
10045;SDS011;5063;50.878;4.742;2023-05-29T12:21:57;6.03;;;2.85;;
10045;SDS011;5063;50.878;4.742;2023-05-29T12:24:22;10.52;;;3.10;;
10045;SDS011;5063;50.878;4.742;2023-05-29T12:26:48;8.48;;;3.00;;
10045;SDS011;5063;50.878;4.742;2023-05-29T12:29:16;9.68;;;3.13;;
10045;SDS011;5063;50.878;4.742;2023-05-29T12:31:41;8.38;;;2.47;;
10045;SDS011;5063;50.878;4.742;2023-05-29T12:34:08;6.68;;;2.92;;
10045;SDS011;5063;50.878;4.742;2023-05-29T12:36:35;8.30;;;3.25;;
10045;SDS011;5063;50.878;4.742;2023-05-29T12:39:09;9.43;;;3.03;;
10045;SDS011;5063;50.878;4.742;2023-05-29T12:41:35;7.97;;;2.83;;
10045;SDS011;5063;50.878;4.742;2023-05-29T12:44:02;10.15;;;2.92;;
10045;SDS011;5063;50.878;4.742;2023-05-29T12:46:35;7.07;;;2.95;;
10045;SDS011;5063;50.878;4.742;2023-05-29T12:49:15;6.00;;;3.10;;
10045;SDS011;5063;50.878;4.742;2023-05-29T12:51:42;6.88;;;3.20;;
10045;SDS011;5063;50.878;4.742;2023-05-29T12:54:13;7.72;;;2.92;;
10045;SDS011;5063;50.878;4.742;2023-05-29T12:56:40;6.28;;;2.90;;
10045;SDS011;5063;50.878;4.742;2023-05-29T12:59:07;10.90;;;3.13;;
10045;SDS011;5063;50.878;4.742;2023-05-29T13:01:33;8.48;;;2.55;;
10045;SDS011;5063;50.878;4.742;2023-05-29T13:04:00;7.97;;;3.08;;
10045;SDS011;5063;50.878;4.742;2023-05-29T13:06:25;4.80;;;2.50;;
10045;SDS011;5063;50.878;4.742;2023-05-29T13:08:51;5.45;;;2.65;;
10045;SDS011;5063;50.878;4.742;2023-05-29T13:11:17;9.27;;;3.30;;
10045;SDS011;5063;50.878;4.742;2023-05-29T13:13:43;4.88;;;2.50;;
10045;SDS011;5063;50.878;4.742;2023-05-29T13:16:09;6.28;;;2.58;;
10045;SDS011;5063;50.878;4.742;2023-05-29T13:18:35;7.63;;;2.92;;
10045;SDS011;5063;50.878;4.742;2023-05-29T13:21:00;8.02;;;3.45;;
10045;SDS011;5063;50.878;4.742;2023-05-29T13:23:26;7.68;;;3.15;;
10045;SDS011;5063;50.878;4.742;2023-05-29T13:25:52;8.77;;;3.15;;
10045;SDS011;5063;50.878;4.742;2023-05-29T13:28:18;9.38;;;3.30;;
10045;SDS011;5063;50.878;4.742;2023-05-29T13:30:44;6.43;;;3.17;;
10045;SDS011;5063;50.878;4.742;2023-05-29T13:33:09;9.95;;;3.35;;
10045;SDS011;5063;50.878;4.742;2023-05-29T13:35:35;8.10;;;2.88;;
10045;SDS011;5063;50.878;4.742;2023-05-29T13:38:01;4.88;;;2.78;;
10045;SDS011;5063;50.878;4.742;2023-05-29T13:40:27;9.40;;;2.85;;
10045;SDS011;5063;50.878;4.742;2023-05-29T13:42:53;4.47;;;2.20;;
10045;SDS011;5063;50.878;4.742;2023-05-29T13:45:20;12.52;;;3.53;;
10045;SDS011;5063;50.878;4.742;2023-05-29T13:47:46;11.40;;;4.82;;
10045;SDS011;5063;50.878;4.742;2023-05-29T13:50:11;5.50;;;3.03;;
10045;SDS011;5063;50.878;4.742;2023-05-29T13:52:38;9.70;;;2.97;;
10045;SDS011;5063;50.878;4.742;2023-05-29T13:55:04;8.43;;;2.80;;
10045;SDS011;5063;50.878;4.742;2023-05-29T13:57:33;5.70;;;2.67;;
10045;SDS011;5063;50.878;4.742;2023-05-29T14:00:00;9.27;;;3.30;;
10045;SDS011;5063;50.878;4.742;2023-05-29T14:02:26;6.32;;;3.25;;
10045;SDS011;5063;50.878;4.742;2023-05-29T14:04:52;7.75;;;2.80;;
10045;SDS011;5063;50.878;4.742;2023-05-29T14:07:17;7.55;;;3.30;;
10045;SDS011;5063;50.878;4.742;2023-05-29T14:09:43;8.30;;;3.13;;
10045;SDS011;5063;50.878;4.742;2023-05-29T14:12:09;8.02;;;2.45;;
10045;SDS011;5063;50.878;4.742;2023-05-29T14:14:35;11.85;;;3.25;;
10045;SDS011;5063;50.878;4.742;2023-05-29T14:17:00;9.88;;;3.13;;
10045;SDS011;5063;50.878;4.742;2023-05-29T14:19:26;4.75;;;2.90;;
10045;SDS011;5063;50.878;4.742;2023-05-29T14:21:52;8.65;;;3.05;;
10045;SDS011;5063;50.878;4.742;2023-05-29T14:24:18;5.22;;;2.72;;
10045;SDS011;5063;50.878;4.742;2023-05-29T14:26:44;5.97;;;2.85;;
10045;SDS011;5063;50.878;4.742;2023-05-29T14:29:12;7.07;;;2.88;;
10045;SDS011;5063;50.878;4.742;2023-05-29T14:31:42;10.65;;;3.03;;
10045;SDS011;5063;50.878;4.742;2023-05-29T14:34:08;6.20;;;3.05;;
10045;SDS011;5063;50.878;4.742;2023-05-29T14:36:34;5.80;;;2.45;;
10045;SDS011;5063;50.878;4.742;2023-05-29T14:39:01;5.15;;;2.47;;
10045;SDS011;5063;50.878;4.742;2023-05-29T14:41:27;4.95;;;3.00;;
10045;SDS011;5063;50.878;4.742;2023-05-29T14:43:53;9.00;;;3.20;;
10045;SDS011;5063;50.878;4.742;2023-05-29T14:46:23;6.38;;;2.75;;
10045;SDS011;5063;50.878;4.742;2023-05-29T14:48:50;7.80;;;3.05;;
10045;SDS011;5063;50.878;4.742;2023-05-29T14:51:16;5.38;;;2.47;;
10045;SDS011;5063;50.878;4.742;2023-05-29T14:53:43;7.55;;;2.67;;
10045;SDS011;5063;50.878;4.742;2023-05-29T14:56:09;8.18;;;2.85;;
10045;SDS011;5063;50.878;4.742;2023-05-29T14:58:35;5.65;;;2.50;;
10045;SDS011;5063;50.878;4.742;2023-05-29T15:01:01;3.70;;;2.30;;
10045;SDS011;5063;50.878;4.742;2023-05-29T15:03:26;7.47;;;2.75;;
10045;SDS011;5063;50.878;4.742;2023-05-29T15:05:53;8.57;;;2.78;;
10045;SDS011;5063;50.878;4.742;2023-05-29T15:08:19;6.47;;;3.22;;
10045;SDS011;5063;50.878;4.742;2023-05-29T15:10:45;11.90;;;3.95;;
10045;SDS011;5063;50.878;4.742;2023-05-29T15:13:11;8.43;;;3.00;;
10045;SDS011;5063;50.878;4.742;2023-05-29T15:15:37;5.18;;;3.05;;
10045;SDS011;5063;50.878;4.742;2023-05-29T15:18:02;5.70;;;2.60;;
10045;SDS011;5063;50.878;4.742;2023-05-29T15:20:28;4.38;;;2.70;;
10045;SDS011;5063;50.878;4.742;2023-05-29T15:22:54;6.13;;;2.70;;
10045;SDS011;5063;50.878;4.742;2023-05-29T15:25:20;6.72;;;2.70;;